createdAt,value
2023-04-04T00:00:01.406Z,63.8020
2023-04-04T00:01:03.714Z,63.8663
2023-04-04T00:02:06.021Z,63.9743
2023-04-04T00:03:08.638Z,64.1703
2023-04-04T00:04:10.956Z,64.1962
2023-04-04T00:06:35.551Z,64.0269
2023-04-04T00:07:38.161Z,64.3424
2023-04-04T00:08:40.458Z,64.3459
2023-04-04T00:09:42.724Z,64.2242
2023-04-04T00:10:45.038Z,64.0208
2023-04-04T00:11:47.490Z,64.1757
2023-04-04T00:12:49.934Z,64.4373
2023-04-04T00:13:52.218Z,64.6360
2023-04-04T00:14:54.715Z,64.3247
2023-04-04T00:15:55.082Z,64.3004
2023-04-04T00:16:57.423Z,64.3686
2023-04-04T00:17:59.728Z,64.5459
2023-04-04T00:19:02.132Z,64.4285
2023-04-04T00:20:04.538Z,64.5432
2023-04-04T00:21:07.092Z,63.9935
2023-04-04T00:22:09.373Z,63.7830
2023-04-04T00:23:11.691Z,64.0808
2023-04-04T00:24:13.991Z,64.2911
2023-04-04T00:26:17.574Z,64.5442
2023-04-04T00:27:19.978Z,64.5315
2023-04-04T00:28:22.289Z,64.7888
2023-04-04T00:29:24.780Z,64.8652
2023-04-04T00:30:27.046Z,65.0043
2023-04-04T00:31:29.360Z,65.0058
2023-04-04T00:32:31.886Z,65.2615
2023-04-04T00:33:34.218Z,65.3817
2023-04-04T00:34:36.516Z,65.3180
2023-04-04T00:35:38.955Z,65.4191
2023-04-04T00:36:41.233Z,65.1326
2023-04-04T00:37:43.826Z,65.0767
2023-04-04T00:38:46.107Z,65.2223
2023-04-04T00:39:48.417Z,64.9419
2023-04-04T00:40:50.730Z,65.0623
2023-04-04T00:41:52.987Z,65.1993
2023-04-04T00:42:55.659Z,65.3488
2023-04-04T00:43:57.946Z,65.5283
2023-04-04T00:45:00.222Z,65.4455
2023-04-04T00:46:02.559Z,65.4263
2023-04-04T00:47:05.683Z,65.3459
2023-04-04T00:48:08.332Z,65.3078
2023-04-04T00:49:10.652Z,65.7062
2023-04-04T00:50:13.557Z,65.3919
2023-04-04T00:51:15.843Z,65.4363
2023-04-04T00:52:18.138Z,65.8390
2023-04-04T00:53:20.554Z,66.1358
2023-04-04T00:54:22.831Z,66.0060
2023-04-04T00:55:25.149Z,66.2452
2023-04-04T00:56:27.430Z,66.2337
2023-04-04T00:57:29.955Z,66.3319
2023-04-04T00:58:32.247Z,66.5051
2023-04-04T00:59:34.549Z,66.6604
2023-04-04T01:00:36.820Z,66.6222
2023-04-04T01:01:39.249Z,66.4652
2023-04-04T01:02:41.521Z,66.5629
2023-04-04T01:03:44.245Z,66.6883
2023-04-04T01:04:46.565Z,66.8098
2023-04-04T01:05:49.188Z,66.6987
2023-04-04T01:06:51.465Z,66.6757
2023-04-04T01:07:53.771Z,66.7575
2023-04-04T01:08:56.079Z,66.8617
2023-04-04T01:09:58.756Z,67.0060
2023-04-04T01:11:01.015Z,67.1390
2023-04-04T01:12:03.331Z,66.8080
2023-04-04T01:13:05.841Z,66.6789
2023-04-04T01:14:08.216Z,67.0130
2023-04-04T01:15:10.517Z,67.1655
2023-04-04T01:16:13.191Z,67.4940
2023-04-04T01:17:15.575Z,67.6699
2023-04-04T01:18:17.915Z,67.5801
2023-04-04T01:19:20.248Z,67.6654
2023-04-04T01:20:22.550Z,67.8459
2023-04-04T01:21:24.844Z,67.9070
2023-04-04T01:22:27.321Z,68.0324
2023-04-04T01:23:29.585Z,68.1899
2023-04-04T01:24:31.921Z,68.2016
2023-04-04T01:25:34.211Z,68.4260
2023-04-04T01:28:21.343Z,68.6336
2023-04-04T01:29:17.094Z,68.8190
2023-04-04T01:30:19.403Z,68.7835
2023-04-04T01:31:21.907Z,68.5870
2023-04-04T01:32:24.257Z,68.8078
2023-04-04T01:33:26.542Z,68.9929
2023-04-04T01:34:29.425Z,69.1979
2023-04-04T01:35:31.721Z,69.3804
2023-04-04T01:36:34.051Z,69.4569
2023-04-04T01:37:36.337Z,69.3787
2023-04-04T01:38:38.650Z,69.4809
2023-04-04T01:39:41.168Z,69.6126
2023-04-04T01:40:43.441Z,69.5772
2023-04-04T01:41:45.722Z,69.6918
2023-04-04T01:42:48.063Z,69.7577
2023-04-04T01:43:50.332Z,69.8319
2023-04-04T01:44:52.806Z,70.2085
2023-04-04T01:45:55.093Z,70.0460
2023-04-04T01:46:57.392Z,69.7683
2023-04-04T01:47:59.674Z,69.5611
2023-04-04T01:49:02.229Z,69.5648
2023-04-04T01:50:04.510Z,69.5668
2023-04-04T01:51:06.827Z,69.3550
2023-04-04T01:52:09.355Z,69.3351
2023-04-04T01:53:11.855Z,69.5407
2023-04-04T01:54:14.096Z,69.6067
2023-04-04T01:55:16.765Z,69.8294
2023-04-04T01:56:19.020Z,69.6925
2023-04-04T01:57:21.387Z,69.6329
2023-04-04T01:58:23.648Z,69.4118
2023-04-04T01:59:26.070Z,69.4664
2023-04-04T02:00:28.429Z,69.6272
2023-04-04T02:01:29.145Z,69.8933
2023-04-04T02:02:31.911Z,69.8777
2023-04-04T02:03:34.382Z,69.8946
2023-04-04T02:04:36.683Z,69.8186
2023-04-04T02:05:39.623Z,69.8170
2023-04-04T02:06:41.964Z,69.9656
2023-04-04T02:07:44.221Z,69.9940
2023-04-04T02:08:46.515Z,70.3800
2023-04-04T02:09:48.791Z,70.4661
2023-04-04T02:10:51.348Z,70.3560
2023-04-04T02:11:53.699Z,69.9571
2023-04-04T02:12:55.992Z,69.9231
2023-04-04T02:13:58.344Z,69.9919
2023-04-04T02:15:00.656Z,70.2346
2023-04-04T02:16:02.961Z,70.5106
2023-04-04T02:17:05.267Z,70.7082
2023-04-04T02:18:07.589Z,70.5136
2023-04-04T02:19:09.883Z,70.2687
2023-04-04T02:20:12.152Z,70.1473
2023-04-04T02:21:14.486Z,70.4196
2023-04-04T02:22:16.799Z,70.3692
2023-04-04T02:23:19.088Z,70.1432
2023-04-04T02:24:21.363Z,70.3365
2023-04-04T02:25:23.669Z,70.4450
2023-04-04T02:26:25.930Z,70.4445
2023-04-04T02:27:28.281Z,70.4335
2023-04-04T02:28:30.553Z,70.6596
2023-04-04T02:29:32.854Z,70.9184
2023-04-04T02:30:35.159Z,71.0969
2023-04-04T02:31:37.472Z,71.3358
2023-04-04T02:32:39.783Z,71.3827
2023-04-04T02:33:42.120Z,71.5218
2023-04-04T02:34:44.430Z,71.5348
2023-04-04T02:35:46.823Z,71.6393
2023-04-04T02:36:49.125Z,71.6954
2023-04-04T02:37:51.468Z,71.8608
2023-04-04T02:38:53.778Z,71.7243
2023-04-04T02:39:56.119Z,72.0829
2023-04-04T02:40:58.436Z,72.0863
2023-04-04T02:42:00.782Z,72.2542
2023-04-04T02:43:03.132Z,72.0234
2023-04-04T02:44:05.456Z,71.6458
2023-04-04T02:45:07.777Z,71.8604
2023-04-04T02:46:20.566Z,71.9504
2023-04-04T02:47:11.522Z,71.8264
2023-04-04T02:48:13.876Z,71.9062
2023-04-04T02:49:16.197Z,71.7511
2023-04-04T02:50:18.541Z,71.6026
2023-04-04T02:51:20.851Z,71.4338
2023-04-04T02:52:23.185Z,71.1888
2023-04-04T02:53:25.510Z,71.3657
2023-04-04T02:54:27.856Z,71.2069
2023-04-04T02:55:30.186Z,71.3568
2023-04-04T02:56:32.541Z,71.2188
2023-04-04T02:57:34.840Z,71.0853
2023-04-04T02:58:37.183Z,71.2148
2023-04-04T02:59:39.503Z,71.0031
2023-04-04T03:00:42.193Z,70.9985
2023-04-04T03:01:44.699Z,71.1599
2023-04-04T03:02:47.120Z,71.0188
2023-04-04T03:03:49.552Z,71.1528
2023-04-04T03:04:51.957Z,71.2405
2023-04-04T03:05:54.288Z,71.4584
2023-04-04T03:06:56.606Z,71.6214
2023-04-04T03:07:58.917Z,71.5057
2023-04-04T03:09:01.427Z,71.2137
2023-04-04T03:10:03.742Z,71.1450
2023-04-04T03:11:06.063Z,70.9353
2023-04-04T03:12:08.393Z,70.7514
2023-04-04T03:13:10.774Z,70.6694
2023-04-04T03:14:13.102Z,70.9093
2023-04-04T03:15:15.493Z,71.1182
2023-04-04T03:16:17.872Z,71.4126
2023-04-04T03:17:20.252Z,71.6988
2023-04-04T03:18:22.565Z,71.5317
2023-04-04T03:19:24.984Z,71.2633
2023-04-04T03:20:27.302Z,71.5570
2023-04-04T03:21:29.636Z,71.6898
2023-04-04T03:22:31.950Z,71.7323
2023-04-04T03:23:34.344Z,71.8077
2023-04-04T03:24:38.119Z,72.0327
2023-04-04T03:25:37.488Z,71.9799
2023-04-04T03:26:39.795Z,71.6763
2023-04-04T03:27:42.152Z,71.8552
2023-04-04T03:28:44.461Z,72.0387
2023-04-04T03:29:46.815Z,71.8077
2023-04-04T03:30:49.125Z,71.8269
2023-04-04T03:31:51.507Z,71.8699
2023-04-04T03:32:53.817Z,71.8734
2023-04-04T03:33:56.143Z,71.9300
2023-04-04T03:34:58.512Z,71.9263
2023-04-04T03:36:00.857Z,71.5464
2023-04-04T03:37:03.176Z,71.1723
2023-04-04T03:38:05.514Z,71.0415
2023-04-04T03:39:07.829Z,71.1521
2023-04-04T03:40:10.218Z,71.3254
2023-04-04T03:41:12.663Z,71.1637
2023-04-04T03:42:14.950Z,71.0985
2023-04-04T03:43:17.268Z,71.0415
2023-04-04T03:44:19.835Z,71.1268
2023-04-04T03:45:22.174Z,71.2969
2023-04-04T03:46:24.546Z,71.6288
2023-04-04T03:47:26.893Z,71.8647
2023-04-04T03:48:29.489Z,71.6439
2023-04-04T03:49:31.813Z,71.6765
2023-04-04T03:50:34.207Z,71.8893
2023-04-04T03:51:36.523Z,71.9656
2023-04-04T03:52:38.854Z,71.9164
2023-04-04T03:53:41.169Z,71.7690
2023-04-04T03:54:43.497Z,71.8493
2023-04-04T03:55:45.828Z,71.7610
2023-04-04T03:56:48.373Z,71.5479
2023-04-04T03:57:50.698Z,71.4202
2023-04-04T03:58:53.099Z,71.3275
2023-04-04T03:59:55.417Z,71.3630
2023-04-04T04:00:57.807Z,71.5507
2023-04-04T04:02:00.128Z,71.7036
2023-04-04T04:03:02.528Z,71.7759
2023-04-04T04:04:04.895Z,71.7846
2023-04-04T04:05:07.203Z,72.0648
2023-04-04T04:06:09.712Z,72.1703
2023-04-04T04:07:12.038Z,72.0210
2023-04-04T04:08:14.359Z,71.9800
2023-04-04T04:09:17.025Z,71.9743
2023-04-04T04:10:19.334Z,71.4597
2023-04-04T04:11:21.718Z,71.4060
2023-04-04T04:12:24.041Z,71.7292
2023-04-04T04:13:26.628Z,72.0518
2023-04-04T04:14:28.940Z,71.9821
2023-04-04T04:15:31.274Z,72.0192
2023-04-04T04:16:33.714Z,71.8146
2023-04-04T04:17:36.080Z,71.8274
2023-04-04T04:18:38.363Z,71.7780
2023-04-04T04:19:40.729Z,71.7566
2023-04-04T04:20:43.180Z,71.8133
2023-04-04T04:21:45.864Z,71.6729
2023-04-04T04:22:48.189Z,71.6971
2023-04-04T04:23:50.543Z,71.9288
2023-04-04T04:24:52.855Z,71.5271
2023-04-04T04:25:56.094Z,71.8313
2023-04-04T04:26:58.422Z,71.9706
2023-04-04T04:28:00.761Z,71.8501
2023-04-04T04:29:03.085Z,72.3115
2023-04-04T04:30:05.438Z,72.7307
2023-04-04T04:31:07.834Z,72.9677
2023-04-04T04:32:10.214Z,72.7386
2023-04-04T04:33:12.530Z,72.4738
2023-04-04T04:34:15.110Z,72.2466
2023-04-04T04:35:17.448Z,72.2493
2023-04-04T04:36:19.859Z,72.1415
2023-04-04T04:37:22.214Z,72.3956
2023-04-04T04:38:24.550Z,72.1435
2023-04-04T04:39:26.875Z,72.2059
2023-04-04T04:40:29.221Z,72.6242
2023-04-04T04:41:31.551Z,72.5205
2023-04-04T04:42:33.891Z,72.6206
2023-04-04T04:43:36.215Z,72.6059
2023-04-04T04:44:38.549Z,72.4916
2023-04-04T04:45:40.861Z,72.7000
2023-04-04T04:46:43.241Z,72.6255
2023-04-04T04:47:45.598Z,72.5716
2023-04-04T04:48:47.983Z,72.5203
2023-04-04T04:49:50.285Z,72.6741
2023-04-04T04:50:52.620Z,72.8061
2023-04-04T04:51:54.955Z,72.9674
2023-04-04T04:52:57.349Z,72.9000
2023-04-04T04:53:59.665Z,72.7412
2023-04-04T04:55:02.003Z,72.6722
2023-04-04T04:56:04.568Z,72.7282
2023-04-04T04:57:06.912Z,72.6103
2023-04-04T04:58:09.288Z,72.5575
2023-04-04T04:59:11.675Z,72.8040
2023-04-04T05:00:13.982Z,73.0758
2023-04-04T05:01:16.404Z,72.6048
2023-04-04T05:02:18.751Z,72.4158
2023-04-04T05:03:21.103Z,72.5393
2023-04-04T05:04:23.419Z,72.9161
2023-04-04T05:05:25.750Z,73.2370
2023-04-04T05:06:28.075Z,73.2862
2023-04-04T05:07:30.406Z,73.3455
2023-04-04T05:08:32.746Z,73.3577
2023-04-04T05:09:35.104Z,73.6617
2023-04-04T05:10:37.490Z,73.6940
2023-04-04T05:11:39.901Z,73.3478
2023-04-04T05:12:42.202Z,73.5479
2023-04-04T05:13:44.556Z,73.4688
2023-04-04T05:14:46.884Z,73.3985
2023-04-04T05:15:49.236Z,73.0101
2023-04-04T05:16:51.595Z,73.2125
2023-04-04T05:17:53.977Z,73.2377
2023-04-04T05:18:56.360Z,73.2178
2023-04-04T05:19:58.735Z,73.4487
2023-04-04T05:21:01.042Z,73.6999
2023-04-04T05:22:03.620Z,73.7345
2023-04-04T05:23:05.951Z,73.2291
2023-04-04T05:24:08.304Z,73.5720
2023-04-04T05:25:10.612Z,73.6384
2023-04-04T05:26:12.943Z,73.6303
2023-04-04T05:27:15.268Z,73.7090
2023-04-04T05:28:17.616Z,73.2430
2023-04-04T05:29:19.959Z,73.0404
2023-04-04T05:30:22.376Z,72.7787
2023-04-04T05:31:24.700Z,72.7454
2023-04-04T05:32:27.072Z,72.9368
2023-04-04T05:33:29.431Z,72.8009
2023-04-04T05:34:31.806Z,73.0060
2023-04-04T05:35:34.171Z,73.0515
2023-04-04T05:36:36.562Z,72.9298
2023-04-04T05:37:38.858Z,72.7899
2023-04-04T05:38:41.213Z,72.5140
2023-04-04T05:39:43.558Z,72.4635
2023-04-04T05:40:45.892Z,72.5000
2023-04-04T05:41:48.204Z,72.4825
2023-04-04T05:42:50.538Z,72.3662
2023-04-04T05:43:52.860Z,72.1887
2023-04-04T05:44:55.229Z,72.0357
2023-04-04T05:45:57.654Z,72.1085
2023-04-04T05:47:00.011Z,72.0503
2023-04-04T05:48:02.376Z,71.8685
2023-04-04T05:49:04.715Z,71.8014
2023-04-04T05:50:07.067Z,71.9443
2023-04-04T05:51:10.328Z,72.0400
2023-04-04T05:52:10.071Z,72.0798
2023-04-04T05:53:12.445Z,72.2104
2023-04-04T05:54:14.751Z,71.9031
2023-04-04T05:55:17.100Z,71.8555
2023-04-04T05:56:19.422Z,71.9821
2023-04-04T05:57:23.398Z,71.7192
2023-04-04T05:58:22.954Z,71.2041
2023-04-04T05:59:25.336Z,71.0167
2023-04-04T06:00:27.638Z,70.9712
2023-04-04T06:01:29.992Z,71.0939
2023-04-04T06:02:32.399Z,70.7913
2023-04-04T06:03:34.891Z,70.6368
2023-04-04T06:04:37.231Z,70.3297
2023-04-04T06:05:39.632Z,70.3437
2023-04-04T06:06:42.002Z,70.0728
2023-04-04T06:07:44.338Z,69.7269
2023-04-04T06:08:53.484Z,69.8943
2023-04-04T06:09:47.991Z,69.7635
2023-04-04T06:10:50.366Z,69.8138
2023-04-04T06:11:52.939Z,69.6979
2023-04-04T06:12:55.260Z,69.3925
2023-04-04T06:13:57.620Z,69.1824
2023-04-04T06:14:59.929Z,69.0356
2023-04-04T06:16:02.295Z,67.7703
2023-04-04T06:17:04.623Z,67.9783
2023-04-04T06:18:06.984Z,66.8422
2023-04-04T06:19:09.346Z,65.4246
2023-04-04T06:20:11.712Z,64.4108
2023-04-04T06:21:14.021Z,62.7765
2023-04-04T06:22:16.374Z,62.4506
2023-04-04T06:23:18.704Z,62.5739
2023-04-04T06:24:21.051Z,62.1948
2023-04-04T06:25:23.385Z,64.9706
2023-04-04T06:26:25.751Z,66.4904
2023-04-04T06:27:28.100Z,67.7062
2023-04-04T06:28:30.403Z,67.3741
2023-04-04T06:29:32.749Z,66.9278
2023-04-04T06:30:35.076Z,68.5911
2023-04-04T06:31:37.501Z,68.8400
2023-04-04T06:32:39.876Z,68.6768
2023-04-04T06:33:42.198Z,68.4251
2023-04-04T06:34:44.511Z,68.9423
2023-04-04T06:35:46.853Z,69.3289
2023-04-04T06:36:49.279Z,69.3221
2023-04-04T06:37:51.623Z,69.0330
2023-04-04T06:38:53.945Z,68.3517
2023-04-04T06:39:56.296Z,68.3323
2023-04-04T06:40:58.623Z,67.2578
2023-04-04T06:42:00.971Z,67.5977
2023-04-04T06:43:03.311Z,68.6959
2023-04-04T06:44:05.644Z,68.8686
2023-04-04T06:45:07.963Z,69.0659
2023-04-04T06:46:10.316Z,69.4996
2023-04-04T06:47:12.679Z,69.1410
2023-04-04T06:48:15.012Z,68.7122
2023-04-04T06:49:17.360Z,67.8764
2023-04-04T06:50:19.703Z,68.3204
2023-04-04T06:51:22.033Z,68.0737
2023-04-04T06:52:24.384Z,68.1534
2023-04-04T06:53:26.700Z,68.4334
2023-04-04T06:54:29.065Z,68.9467
2023-04-04T06:55:31.398Z,68.6954
2023-04-04T06:56:33.772Z,68.9695
2023-04-04T06:57:36.110Z,68.8931
2023-04-04T06:58:38.463Z,68.7483
2023-04-04T06:59:41.160Z,68.7278
2023-04-04T07:00:41.270Z,68.6405
2023-04-04T07:01:44.124Z,67.7426
2023-04-04T07:02:46.569Z,67.2925
2023-04-04T07:03:48.908Z,66.7682
2023-04-04T07:04:51.256Z,67.3829
2023-04-04T07:05:53.572Z,67.7928
2023-04-04T07:06:55.929Z,67.8024
2023-04-04T07:07:58.341Z,67.0407
2023-04-04T07:09:00.744Z,67.5279
2023-04-04T07:10:03.054Z,67.9984
2023-04-04T07:11:05.398Z,67.6582
2023-04-04T07:12:07.736Z,66.4105
2023-04-04T07:13:10.065Z,65.9266
2023-04-04T07:14:12.394Z,66.3143
2023-04-04T07:15:14.844Z,66.1726
2023-04-04T07:16:17.202Z,66.5983
2023-04-04T07:17:24.853Z,64.9680
2023-04-04T07:18:20.875Z,65.6351
2023-04-04T07:19:23.238Z,66.1818
2023-04-04T07:20:25.568Z,66.1402
2023-04-04T07:21:28.073Z,66.3209
2023-04-04T07:22:30.357Z,66.3763
2023-04-04T07:23:32.758Z,66.8195
2023-04-04T07:24:35.072Z,66.8689
2023-04-04T07:25:37.403Z,66.8144
2023-04-04T07:26:39.728Z,66.5501
2023-04-04T07:27:42.075Z,66.0950
2023-04-04T07:28:44.403Z,65.5646
2023-04-04T07:29:46.759Z,65.3055
2023-04-04T07:30:49.099Z,65.5709
2023-04-04T07:31:51.460Z,65.1013
2023-04-04T07:32:53.813Z,65.3593
2023-04-04T07:33:56.204Z,65.2878
2023-04-04T07:34:58.549Z,65.5968
2023-04-04T07:36:00.925Z,66.1752
2023-04-04T07:37:03.233Z,65.9986
2023-04-04T07:38:05.588Z,65.0216
2023-04-04T07:39:08.078Z,65.4685
2023-04-04T07:40:10.433Z,64.8848
2023-04-04T07:41:12.772Z,65.1264
2023-04-04T07:42:15.127Z,65.1374
2023-04-04T07:43:17.440Z,65.3105
2023-04-04T07:44:20.294Z,65.1495
2023-04-04T07:45:22.598Z,64.9933
2023-04-04T07:46:25.034Z,64.4077
2023-04-04T07:47:27.354Z,63.1217
2023-04-04T07:48:29.688Z,63.9496
2023-04-04T07:49:32.101Z,64.4627
2023-04-04T07:50:34.491Z,64.8199
2023-04-04T07:51:36.816Z,65.0253
2023-04-04T07:52:39.136Z,64.8564
2023-04-04T07:53:41.513Z,64.3531
2023-04-04T07:54:44.016Z,64.0536
2023-04-04T07:55:46.322Z,62.6717
2023-04-04T07:56:48.672Z,62.9233
2023-04-04T07:57:50.995Z,63.4814
2023-04-04T07:58:53.436Z,63.8990
2023-04-04T07:59:55.830Z,64.5344
2023-04-04T08:00:58.249Z,62.7487
2023-04-04T08:02:00.558Z,63.6282
2023-04-04T08:03:03.028Z,64.7046
2023-04-04T08:04:05.377Z,63.8888
2023-04-04T08:05:07.732Z,62.4202
2023-04-04T08:06:10.065Z,61.8796
2023-04-04T08:07:12.420Z,61.2426
2023-04-04T08:08:15.051Z,61.4109
2023-04-04T08:09:17.367Z,61.5305
2023-04-04T08:10:19.712Z,61.4093
2023-04-04T08:11:22.064Z,60.7383
2023-04-04T08:12:24.367Z,56.9558
2023-04-04T08:13:26.707Z,59.6551
2023-04-04T08:14:29.047Z,61.4277
2023-04-04T08:15:31.397Z,61.0018
2023-04-04T08:16:33.740Z,59.9248
2023-04-04T08:17:36.092Z,59.3125
2023-04-04T08:18:38.414Z,59.6269
2023-04-04T08:19:40.996Z,59.3188
2023-04-04T08:20:43.333Z,59.4786
2023-04-04T08:21:45.676Z,58.4315
2023-04-04T08:22:48.008Z,60.7599
2023-04-04T08:23:50.420Z,59.7234
2023-04-04T08:24:52.726Z,59.3211
2023-04-04T08:25:55.073Z,59.9277
2023-04-04T08:27:04.989Z,61.3089
2023-04-04T08:27:59.110Z,60.8033
2023-04-04T08:29:01.425Z,60.6759
2023-04-04T08:30:03.920Z,61.2752
2023-04-04T08:31:06.314Z,61.5886
2023-04-04T08:32:08.793Z,62.5315
2023-04-04T08:33:11.168Z,62.5376
2023-04-04T08:34:13.586Z,62.1800
2023-04-04T08:35:15.898Z,59.9702
2023-04-04T08:36:18.277Z,54.8424
2023-04-04T08:37:20.659Z,55.8003
2023-04-04T08:38:22.971Z,58.7547
2023-04-04T08:39:25.310Z,59.8639
2023-04-04T08:40:27.676Z,60.1918
2023-04-04T08:41:30.004Z,59.5657
2023-04-04T08:42:32.355Z,58.3563
2023-04-04T08:43:34.678Z,58.1900
2023-04-04T08:44:37.273Z,57.7443
2023-04-04T08:45:39.633Z,59.3212
2023-04-04T08:46:42.057Z,59.4536
2023-04-04T08:47:44.460Z,56.6963
2023-04-04T08:48:46.866Z,52.4874
2023-04-04T08:49:49.183Z,52.0256
2023-04-04T08:50:51.554Z,48.0288
2023-04-04T08:51:53.971Z,47.1393
2023-04-04T08:52:56.354Z,47.7662
2023-04-04T08:53:58.731Z,46.7868
2023-04-04T08:55:01.145Z,47.5110
2023-04-04T08:56:03.461Z,48.9781
2023-04-04T08:57:05.876Z,48.1292
2023-04-04T08:58:08.260Z,47.1600
2023-04-04T08:59:10.700Z,48.7499
2023-04-04T09:00:13.211Z,49.6434
2023-04-04T09:01:15.657Z,52.3137
2023-04-04T09:02:18.060Z,51.1901
2023-04-04T09:03:20.493Z,50.5814
2023-04-04T09:04:22.829Z,49.3790
2023-04-04T09:05:25.202Z,49.6813
2023-04-04T09:06:27.562Z,49.5022
2023-04-04T09:07:29.952Z,48.9720
2023-04-04T09:08:32.323Z,49.2331
2023-04-04T09:09:34.747Z,50.3288
2023-04-04T09:10:37.121Z,50.9296
2023-04-04T09:11:39.573Z,48.6709
2023-04-04T09:12:41.924Z,47.7256
2023-04-04T09:13:44.296Z,48.9870
2023-04-04T09:14:46.704Z,49.4879
2023-04-04T09:15:49.213Z,50.2516
2023-04-04T09:16:51.745Z,48.6473
2023-04-04T09:17:54.149Z,48.0396
2023-04-04T09:18:56.504Z,48.1314
2023-04-04T09:19:58.906Z,48.1954
2023-04-04T09:21:01.277Z,48.5384
2023-04-04T09:22:03.915Z,48.9821
2023-04-04T09:23:06.274Z,47.8297
2023-04-04T09:24:08.658Z,48.1232
2023-04-04T09:25:11.107Z,48.6943
2023-04-04T09:26:13.492Z,48.4956
2023-04-04T09:27:15.900Z,46.5684
2023-04-04T09:28:18.289Z,47.1969
2023-04-04T09:29:21.625Z,47.6391
2023-04-04T09:30:24.021Z,46.9225
2023-04-04T09:31:26.405Z,46.4063
2023-04-04T09:32:28.856Z,46.9076
2023-04-04T09:33:31.195Z,47.3171
2023-04-04T09:34:33.592Z,47.3903
2023-04-04T09:35:35.981Z,48.1200
2023-04-04T09:36:38.316Z,48.1591
2023-04-04T09:37:40.674Z,48.9384
2023-04-04T09:38:43.265Z,48.5652
2023-04-04T09:39:45.820Z,48.1338
2023-04-04T09:40:48.336Z,48.2515
2023-04-04T09:41:50.746Z,47.5063
2023-04-04T09:42:53.184Z,46.0918
2023-04-04T09:43:55.569Z,45.1789
2023-04-04T09:44:57.955Z,44.4639
2023-04-04T09:46:00.383Z,46.0507
2023-04-04T09:47:02.826Z,45.5623
2023-04-04T09:48:05.199Z,45.4667
2023-04-04T09:49:07.581Z,45.9787
2023-04-04T09:50:09.949Z,44.9910
2023-04-04T09:51:12.335Z,44.8243
2023-04-04T09:52:14.679Z,44.9120
2023-04-04T09:53:17.057Z,45.5439
2023-04-04T09:54:29.064Z,45.5670
2023-04-04T09:55:20.899Z,46.5236
2023-04-04T09:56:23.236Z,45.6337
2023-04-04T09:57:25.622Z,44.9324
2023-04-04T09:58:28.241Z,44.4910
2023-04-04T09:59:30.916Z,45.8329
2023-04-04T10:00:33.251Z,45.9627
2023-04-04T10:01:35.669Z,46.6816
2023-04-04T10:02:38.119Z,45.4893
2023-04-04T10:03:40.505Z,44.7411
2023-04-04T10:04:43.676Z,44.5131
2023-04-04T10:05:43.459Z,45.0043
2023-04-04T10:06:45.816Z,45.5661
2023-04-04T10:07:48.201Z,45.2522
2023-04-04T10:08:50.611Z,45.3699
2023-04-04T10:09:53.054Z,45.4571
2023-04-04T10:11:09.085Z,45.8271
2023-04-04T10:11:56.790Z,45.9539
2023-04-04T10:12:59.149Z,45.9208
2023-04-04T10:14:01.534Z,46.0823
2023-04-04T10:15:03.924Z,45.9766
2023-04-04T10:16:06.380Z,45.1858
2023-04-04T10:17:09.220Z,45.6400
2023-04-04T10:18:09.192Z,45.5483
2023-04-04T10:19:11.800Z,44.6752
2023-04-04T10:20:14.214Z,44.2116
2023-04-04T10:21:16.665Z,44.3426
2023-04-04T10:22:19.053Z,44.8796
2023-04-04T10:23:21.428Z,45.3788
2023-04-04T10:24:23.813Z,46.0999
2023-04-04T10:25:26.207Z,45.3797
2023-04-04T10:26:28.625Z,44.4086
2023-04-04T10:27:30.972Z,44.2521
2023-04-04T10:28:33.362Z,45.4888
2023-04-04T10:29:35.705Z,44.4303
2023-04-04T10:30:38.319Z,44.9981
2023-04-04T10:31:41.012Z,44.0141
2023-04-04T10:32:43.521Z,44.1480
2023-04-04T10:33:45.872Z,45.3297
2023-04-04T10:34:48.290Z,44.9405
2023-04-04T10:35:50.714Z,44.3539
2023-04-04T10:36:53.063Z,43.6703
2023-04-04T10:37:55.409Z,44.0200
2023-04-04T10:38:57.783Z,43.8747
2023-04-04T10:40:00.168Z,43.6093
2023-04-04T10:41:02.550Z,43.1863
2023-04-04T10:42:05.471Z,43.0509
2023-04-04T10:43:07.821Z,43.3410
2023-04-04T10:44:10.436Z,44.8101
2023-04-04T10:45:19.895Z,44.7912
2023-04-04T10:46:14.457Z,43.7217
2023-04-04T10:47:16.842Z,43.9448
2023-04-04T10:48:19.200Z,43.7907
2023-04-04T10:49:21.604Z,44.6422
2023-04-04T10:50:23.940Z,44.4053
2023-04-04T10:51:26.389Z,44.9521
2023-04-04T10:52:28.792Z,44.9801
2023-04-04T10:53:31.380Z,43.3588
2023-04-04T10:54:33.773Z,43.5596
2023-04-04T10:55:36.126Z,43.3167
2023-04-04T10:56:38.532Z,43.7680
2023-04-04T10:57:40.888Z,43.4039
2023-04-04T10:58:43.322Z,43.1280
2023-04-04T10:59:45.709Z,43.2365
2023-04-04T11:00:48.126Z,43.2853
2023-04-04T11:01:50.486Z,42.5646
2023-04-04T11:02:52.955Z,42.9075
2023-04-04T11:03:55.366Z,42.8618
2023-04-04T11:04:57.755Z,43.2189
2023-04-04T11:06:00.156Z,42.7338
2023-04-04T11:07:02.598Z,42.5341
2023-04-04T11:08:08.754Z,42.7950
2023-04-04T11:09:05.089Z,42.6695
2023-04-04T11:10:07.410Z,42.8974
2023-04-04T11:11:21.754Z,42.6374
2023-04-04T11:12:11.211Z,42.2546
2023-04-04T11:13:14.264Z,42.7081
2023-04-04T11:14:16.897Z,42.7824
2023-04-04T11:15:19.308Z,42.6740
2023-04-04T11:16:21.727Z,43.1989
2023-04-04T11:17:24.124Z,42.8116
2023-04-04T11:18:31.958Z,42.9869
2023-04-04T11:19:27.855Z,42.4166
2023-04-04T11:20:30.279Z,42.7315
2023-04-04T11:21:32.666Z,42.8679
2023-04-04T11:22:35.079Z,42.5069
2023-04-04T11:23:37.464Z,42.1564
2023-04-04T11:24:40.028Z,41.7299
2023-04-04T11:25:42.522Z,42.3974
2023-04-04T11:26:44.952Z,43.1315
2023-04-04T11:27:47.455Z,44.3114
2023-04-04T11:28:49.923Z,44.1855
2023-04-04T11:29:52.340Z,43.1111
2023-04-04T11:30:54.710Z,43.0580
2023-04-04T11:31:57.132Z,42.7196
2023-04-04T11:33:07.242Z,43.3432
2023-04-04T11:34:00.870Z,43.5681
2023-04-04T11:35:03.253Z,43.3026
2023-04-04T11:36:08.224Z,43.1494
2023-04-04T11:37:07.608Z,44.1506
2023-04-04T11:38:09.962Z,43.3641
2023-04-04T11:39:12.345Z,42.3433
2023-04-04T11:40:14.705Z,42.4276
2023-04-04T11:41:17.065Z,42.2018
2023-04-04T11:42:19.448Z,41.1803
2023-04-04T11:43:21.868Z,41.1176
2023-04-04T11:44:24.286Z,41.6081
2023-04-04T11:45:26.661Z,41.9977
2023-04-04T11:46:29.122Z,42.3456
2023-04-04T11:47:31.554Z,43.3637
2023-04-04T11:48:34.012Z,43.6544
2023-04-04T11:49:36.418Z,43.3961
2023-04-04T11:50:38.827Z,42.4298
2023-04-04T11:51:41.170Z,40.6950
2023-04-04T11:52:43.581Z,40.5968
2023-04-04T11:53:45.945Z,40.2248
2023-04-04T11:54:48.341Z,40.6146
2023-04-04T11:55:50.686Z,40.9062
2023-04-04T11:56:53.095Z,40.5163
2023-04-04T11:57:55.479Z,41.0894
2023-04-04T11:59:08.735Z,40.7630
2023-04-04T11:59:57.239Z,18.5457
2023-04-04T11:59:59.212Z,40.6832
2023-04-04T12:01:01.623Z,41.4059
2023-04-04T12:02:03.980Z,40.7162
2023-04-04T12:03:06.416Z,39.7390
2023-04-04T12:04:08.806Z,39.2928
2023-04-04T12:05:11.263Z,38.9188
2023-04-04T12:06:13.653Z,39.1603
2023-04-04T12:07:16.053Z,39.8077
2023-04-04T12:08:18.447Z,40.4834
2023-04-04T12:09:20.913Z,39.9263
2023-04-04T12:10:23.256Z,40.2644
2023-04-04T12:11:25.660Z,40.3538
2023-04-04T12:12:27.986Z,39.8024
2023-04-04T12:13:30.387Z,39.9390
2023-04-04T12:14:32.772Z,40.3293
2023-04-04T12:15:35.152Z,39.4059
2023-04-04T12:16:37.580Z,39.1815
2023-04-04T12:17:39.969Z,40.0478
2023-04-04T12:18:42.308Z,41.2440
2023-04-04T12:19:44.732Z,41.1970
2023-04-04T12:20:47.100Z,41.1978
2023-04-04T12:21:49.484Z,41.7829
2023-04-04T12:22:51.836Z,41.7988
2023-04-04T12:23:54.218Z,40.9992
2023-04-04T12:24:56.605Z,39.9051
2023-04-04T12:25:59.012Z,40.1227
2023-04-04T12:27:01.401Z,40.1807
2023-04-04T12:28:03.843Z,39.8800
2023-04-04T12:29:06.183Z,38.9873
2023-04-04T12:30:08.580Z,40.1104
2023-04-04T12:31:10.992Z,38.7739
2023-04-04T12:32:13.369Z,38.8680
2023-04-04T12:33:15.728Z,38.4660
2023-04-04T12:34:18.303Z,37.4035
2023-04-04T12:35:20.698Z,38.5913
2023-04-04T12:36:23.159Z,39.3200